Edinburgh, United Kingdom

9:47 AM BST on October 01, 2014 (GMT +0100)
Leith | Change Station
CLOSE
Current Station
Personal Weather Station
Location: Edinburgh, CITY OF EDINBURGH
Elevation: 90 ft
Nearby Weather Stations

Elev 90 ft 55.98 °N, 3.18 °W | Updated 23 seconds ago

Light Rain
Light Rain
57.5 °F
Feels Like 57.5 °F
N
0.0
Wind Variable Wind from North
Gusts 0.0 mph

Today
High -- | Low -- °F
--% Chance of Precip.
Yesterday
High -- | Low -- °F
Precip. -- in
7:15 AM 6:48 PM
Waxing Crescent, 45% visible
Pressure 30.06 in
Visibility 6.2 miles
Clouds Scattered Clouds 1200 ft
Mostly Cloudy 4900 ft
Dew Point 55 °F
Humidity 91%
Rainfall 0.00 in
Snow Depth Not available.
UV 1 out of 12
Pollen Not available.
Air Quality Not available.
Flu Activity Not available.
METAR EGPH 010820Z 25010KT 9999 -RA SCT012 BKN049 13/12 Q1018

More Conditions Fewer Conditions

Pressure 30.06 in
Visibility 6.2 miles
Clouds Scattered Clouds 1200 ft
Mostly Cloudy 4900 ft
Dew Point 55 °F
Humidity 91%
Rainfall 0.00 in
Snow Depth Not available.
UV 1 out of 12
Pollen Not available.
Air Quality Not available.
Flu Activity Not available.
METAR EGPH 010820Z 25010KT 9999 -RA SCT012 BKN049 13/12 Q1018

More Conditions Fewer Conditions

10-Day Weather Forecast

Almanac

Astronomy

Oct. 01, 2014 Rise Set
Actual Time 7:15 AM BST 6:48 PM BST
Civil Twilight 6:38 AM BST 7:25 PM BST
Nautical Twilight 5:54 AM BST 8:08 PM BST
Astronomical Twilight 5:09 AM BST 8:53 PM BST
Moon 2:52 PM BST 11:18 PM BST
Length of Visible Light 12h 46m
Length of Day
11h 33m
Tomorrow will be 4m 37s shorter.
Waxing Crescent, 45% of the Moon is Illuminated
Today
Waxing Crescent
Oct 1
First Quarter
Oct 8
Full
Oct 15
Last Quarter
Oct 23
New

Yesterday's Extremes

Country Highs Country Lows

Community

WunderPhotos

Upload Photos

1,757,902 photos uploaded!

Nearby

Snow Depth

Not available.

Earthquake Activity

City Distance Mag. Time & Date
No recent earthquake activity has been reported nearby.
Minimum magnitude displayed is 2.5.

Coastal Water Temperatures

Place Temperature
No Stations Reporting

Nearby Weather Stations